sensor_id;sensor_type;location;lat;lon;timestamp;pressure;altitude;pressure_sealevel;temperature;humidity
65131;BME280;51709;54.912;8.316;2023-03-16T00:03:26;101745.47;;;3.90;64.79
65131;BME280;51709;54.912;8.316;2023-03-16T00:08:50;101741.94;;;3.85;64.94
65131;BME280;51709;54.912;8.316;2023-03-16T00:14:11;101737.69;;;3.82;64.79
65131;BME280;51709;54.912;8.316;2023-03-16T00:19:31;101741.78;;;3.77;64.81
65131;BME280;51709;54.912;8.316;2023-03-16T00:24:55;101734.88;;;3.70;64.75
65131;BME280;51709;54.912;8.316;2023-03-16T00:30:16;101739.66;;;3.58;65.19
65131;BME280;51709;54.912;8.316;2023-03-16T00:35:36;101740.31;;;3.49;65.24
65131;BME280;51709;54.912;8.316;2023-03-16T00:40:57;101735.03;;;3.39;65.38
65131;BME280;51709;54.912;8.316;2023-03-16T00:46:18;101743.38;;;3.35;65.54
65131;BME280;51709;54.912;8.316;2023-03-16T00:51:38;101728.03;;;3.29;65.52
65131;BME280;51709;54.912;8.316;2023-03-16T00:57:00;101729.66;;;3.27;65.54
65131;BME280;51709;54.912;8.316;2023-03-16T01:02:21;101723.69;;;3.23;65.48
65131;BME280;51709;54.912;8.316;2023-03-16T01:07:45;101727.09;;;3.26;65.37
65131;BME280;51709;54.912;8.316;2023-03-16T01:13:06;101727.75;;;3.18;65.46
65131;BME280;51709;54.912;8.316;2023-03-16T01:18:26;101726.91;;;3.16;65.51
65131;BME280;51709;54.912;8.316;2023-03-16T01:23:48;101721.06;;;3.20;65.43
65131;BME280;51709;54.912;8.316;2023-03-16T01:29:08;101710.00;;;3.17;65.57
65131;BME280;51709;54.912;8.316;2023-03-16T01:34:29;101709.91;;;3.14;65.77
65131;BME280;51709;54.912;8.316;2023-03-16T01:39:51;101709.88;;;3.12;66.04
65131;BME280;51709;54.912;8.316;2023-03-16T01:51:26;101692.91;;;3.10;66.16
65131;BME280;51709;54.912;8.316;2023-03-16T01:57:07;101694.63;;;3.11;66.07
65131;BME280;51709;54.912;8.316;2023-03-16T02:02:29;101693.75;;;3.10;66.05
65131;BME280;51709;54.912;8.316;2023-03-16T02:07:52;101697.19;;;3.11;66.22
65131;BME280;51709;54.912;8.316;2023-03-16T02:13:18;101695.41;;;3.08;66.29
65131;BME280;51709;54.912;8.316;2023-03-16T02:18:39;101687.78;;;3.08;66.56
65131;BME280;51709;54.912;8.316;2023-03-16T02:24:00;101687.78;;;3.06;66.62
65131;BME280;51709;54.912;8.316;2023-03-16T02:35:19;101686.88;;;3.04;66.73
65131;BME280;51709;54.912;8.316;2023-03-16T02:40:41;101687.78;;;3.06;66.71
65131;BME280;51709;54.912;8.316;2023-03-16T02:46:07;101672.53;;;3.05;67.15
65131;BME280;51709;54.912;8.316;2023-03-16T02:51:29;101663.31;;;3.08;67.00
65131;BME280;51709;54.912;8.316;2023-03-16T02:56:50;101666.75;;;3.11;67.27
65131;BME280;51709;54.912;8.316;2023-03-16T03:02:11;101658.31;;;3.12;67.37
65131;BME280;51709;54.912;8.316;2023-03-16T03:07:32;101659.19;;;3.14;67.32
65131;BME280;51709;54.912;8.316;2023-03-16T03:12:57;101651.66;;;3.17;67.63
65131;BME280;51709;54.912;8.316;2023-03-16T03:18:19;101645.72;;;3.16;67.68
65131;BME280;51709;54.912;8.316;2023-03-16T03:23:39;101639.78;;;3.16;68.16
65131;BME280;51709;54.912;8.316;2023-03-16T03:29:00;101630.47;;;3.15;68.46
65131;BME280;51709;54.912;8.316;2023-03-16T03:34:22;101634.75;;;3.17;68.20
65131;BME280;51709;54.912;8.316;2023-03-16T03:39:43;101633.16;;;3.21;68.15
65131;BME280;51709;54.912;8.316;2023-03-16T03:45:07;101627.28;;;3.23;68.24
65131;BME280;51709;54.912;8.316;2023-03-16T03:50:28;101622.13;;;3.20;68.52
65131;BME280;51709;54.912;8.316;2023-03-16T03:56:07;101630.63;;;3.22;68.58
65131;BME280;51709;54.912;8.316;2023-03-16T04:01:30;101624.75;;;3.25;68.40
65131;BME280;51709;54.912;8.316;2023-03-16T04:06:51;101613.75;;;3.23;68.57
65131;BME280;51709;54.912;8.316;2023-03-16T04:12:12;101617.06;;;3.20;68.79
65131;BME280;51709;54.912;8.316;2023-03-16T04:17:33;101612.03;;;3.22;68.66
65131;BME280;51709;54.912;8.316;2023-03-16T04:22:57;101617.94;;;3.22;68.55
65131;BME280;51709;54.912;8.316;2023-03-16T04:28:18;101633.16;;;3.21;68.67
65131;BME280;51709;54.912;8.316;2023-03-16T04:33:43;101617.00;;;3.17;68.67
65131;BME280;51709;54.912;8.316;2023-03-16T04:39:05;101628.81;;;3.15;68.84
65131;BME280;51709;54.912;8.316;2023-03-16T04:44:25;101613.59;;;3.17;68.94
65131;BME280;51709;54.912;8.316;2023-03-16T04:49:46;101608.44;;;3.14;68.94
65131;BME280;51709;54.912;8.316;2023-03-16T04:55:08;101603.28;;;3.09;68.84
65131;BME280;51709;54.912;8.316;2023-03-16T05:00:35;101615.97;;;3.09;68.88
65131;BME280;51709;54.912;8.316;2023-03-16T05:06:01;101622.75;;;3.10;69.02
65131;BME280;51709;54.912;8.316;2023-03-16T05:11:25;101618.56;;;3.11;68.94
65131;BME280;51709;54.912;8.316;2023-03-16T05:16:50;101615.22;;;3.13;69.01
65131;BME280;51709;54.912;8.316;2023-03-16T05:22:13;101611.94;;;3.17;68.76
65131;BME280;51709;54.912;8.316;2023-03-16T05:27:51;101604.38;;;3.20;68.52
65131;BME280;51709;54.912;8.316;2023-03-16T05:33:22;101604.44;;;3.22;68.59
65131;BME280;51709;54.912;8.316;2023-03-16T05:38:50;101606.16;;;3.24;68.44
65131;BME280;51709;54.912;8.316;2023-03-16T05:44:22;101607.97;;;3.29;68.49
65131;BME280;51709;54.912;8.316;2023-03-16T05:49:59;101609.63;;;3.30;68.48
65131;BME280;51709;54.912;8.316;2023-03-16T05:55:30;101589.41;;;3.31;68.42
65131;BME280;51709;54.912;8.316;2023-03-16T06:00:54;101592.94;;;3.39;68.37
65131;BME280;51709;54.912;8.316;2023-03-16T06:06:21;101581.22;;;3.45;68.27
65131;BME280;51709;54.912;8.316;2023-03-16T06:12:01;101588.69;;;3.38;68.31
65131;BME280;51709;54.912;8.316;2023-03-16T06:17:24;101592.13;;;3.42;68.36
65131;BME280;51709;54.912;8.316;2023-03-16T06:22:45;101587.22;;;3.50;67.74
65131;BME280;51709;54.912;8.316;2023-03-16T06:28:06;101574.59;;;3.53;68.03
65131;BME280;51709;54.912;8.316;2023-03-16T06:33:27;101569.59;;;3.56;67.98
65131;BME280;51709;54.912;8.316;2023-03-16T06:38:49;101580.66;;;3.58;67.90
65131;BME280;51709;54.912;8.316;2023-03-16T06:44:16;101588.25;;;3.58;68.00
65131;BME280;51709;54.912;8.316;2023-03-16T06:49:53;101580.78;;;3.66;67.86
65131;BME280;51709;54.912;8.316;2023-03-16T06:55:17;101575.78;;;3.70;67.50
65131;BME280;51709;54.912;8.316;2023-03-16T07:00:40;101576.63;;;3.69;67.51
65131;BME280;51709;54.912;8.316;2023-03-16T07:06:01;101571.69;;;3.77;67.42
65131;BME280;51709;54.912;8.316;2023-03-16T07:11:23;101567.63;;;3.87;67.20
65131;BME280;51709;54.912;8.316;2023-03-16T07:16:44;101569.44;;;3.94;66.92
65131;BME280;51709;54.912;8.316;2023-03-16T07:22:05;101569.59;;;4.02;66.67
65131;BME280;51709;54.912;8.316;2023-03-16T07:27:31;101570.47;;;4.04;66.27
65131;BME280;51709;54.912;8.316;2023-03-16T07:32:55;101553.66;;;4.09;65.89
65131;BME280;51709;54.912;8.316;2023-03-16T07:38:18;101569.94;;;4.22;65.61
65131;BME280;51709;54.912;8.316;2023-03-16T07:43:39;101571.66;;;4.22;65.37
65131;BME280;51709;54.912;8.316;2023-03-16T07:49:02;101568.22;;;4.20;64.93
65131;BME280;51709;54.912;8.316;2023-03-16T07:54:25;101558.06;;;4.20;65.02
65131;BME280;51709;54.912;8.316;2023-03-16T07:59:46;101560.59;;;4.20;64.54
65131;BME280;51709;54.912;8.316;2023-03-16T08:05:10;101547.84;;;4.16;64.56
65131;BME280;51709;54.912;8.316;2023-03-16T08:10:37;101555.31;;;4.07;64.39
65131;BME280;51709;54.912;8.316;2023-03-16T08:16:10;101552.06;;;4.16;64.15
65131;BME280;51709;54.912;8.316;2023-03-16T08:21:36;101557.19;;;4.19;63.83
65131;BME280;51709;54.912;8.316;2023-03-16T08:27:18;101567.47;;;4.27;63.39
65131;BME280;51709;54.912;8.316;2023-03-16T08:32:44;101549.84;;;4.36;63.42
65131;BME280;51709;54.912;8.316;2023-03-16T08:38:06;101550.66;;;4.34;63.12
65131;BME280;51709;54.912;8.316;2023-03-16T08:43:26;101552.38;;;4.35;63.11
65131;BME280;51709;54.912;8.316;2023-03-16T08:48:47;101547.22;;;4.31;63.07
65131;BME280;51709;54.912;8.316;2023-03-16T08:54:08;101537.06;;;4.31;62.87
65131;BME280;51709;54.912;8.316;2023-03-16T08:59:32;101549.97;;;4.42;62.69
65131;BME280;51709;54.912;8.316;2023-03-16T09:04:53;101542.22;;;4.36;62.70
65131;BME280;51709;54.912;8.316;2023-03-16T09:10:14;101575.34;;;4.41;62.57
65131;BME280;51709;54.912;8.316;2023-03-16T09:15:36;101552.38;;;4.36;62.67
65131;BME280;51709;54.912;8.316;2023-03-16T09:21:02;101544.94;;;4.45;62.46
65131;BME280;51709;54.912;8.316;2023-03-16T09:26:23;101548.50;;;4.57;62.08
65131;BME280;51709;54.912;8.316;2023-03-16T09:31:44;101540.09;;;4.62;62.00
65131;BME280;51709;54.912;8.316;2023-03-16T09:37:05;101556.13;;;4.60;62.28
65131;BME280;51709;54.912;8.316;2023-03-16T09:42:34;101542.72;;;4.67;61.94
65131;BME280;51709;54.912;8.316;2023-03-16T09:48:00;101555.44;;;4.69;61.94
65131;BME280;51709;54.912;8.316;2023-03-16T09:53:26;101540.22;;;4.70;61.91
65131;BME280;51709;54.912;8.316;2023-03-16T09:58:48;101546.97;;;4.71;61.62
65131;BME280;51709;54.912;8.316;2023-03-16T10:04:38;101574.81;;;4.60;62.39
65131;BME280;51709;54.912;8.316;2023-03-16T10:10:14;101550.34;;;4.69;62.12
65131;BME280;51709;54.912;8.316;2023-03-16T10:15:38;101543.63;;;4.72;62.07
65131;BME280;51709;54.912;8.316;2023-03-16T10:21:01;101544.44;;;4.71;62.15
65131;BME280;51709;54.912;8.316;2023-03-16T10:26:25;101544.53;;;4.76;62.04
65131;BME280;51709;54.912;8.316;2023-03-16T10:31:48;101517.34;;;4.70;62.11
65131;BME280;51709;54.912;8.316;2023-03-16T10:37:12;101534.09;;;4.59;62.47
65131;BME280;51709;54.912;8.316;2023-03-16T10:42:35;101513.84;;;4.65;62.47
65131;BME280;51709;54.912;8.316;2023-03-16T10:48:19;101508.00;;;4.72;62.22
65131;BME280;51709;54.912;8.316;2023-03-16T10:53:41;101490.31;;;4.80;62.01
65131;BME280;51709;54.912;8.316;2023-03-16T10:59:14;101511.66;;;4.90;61.97
65131;BME280;51709;54.912;8.316;2023-03-16T11:04:43;101479.44;;;4.89;62.04
65131;BME280;51709;54.912;8.316;2023-03-16T11:10:23;101464.38;;;5.07;61.60
65131;BME280;51709;54.912;8.316;2023-03-16T11:15:53;101466.13;;;5.12;61.57
65131;BME280;51709;54.912;8.316;2023-03-16T11:27:28;101450.13;;;5.22;61.53
65131;BME280;51709;54.912;8.316;2023-03-16T11:32:50;101453.59;;;5.29;61.50
65131;BME280;51709;54.912;8.316;2023-03-16T11:38:18;101432.53;;;5.40;61.19
65131;BME280;51709;54.912;8.316;2023-03-16T11:49:41;101424.97;;;5.51;61.24
65131;BME280;51709;54.912;8.316;2023-03-16T12:01:10;101441.75;;;5.29;62.45
65131;BME280;51709;54.912;8.316;2023-03-16T12:18:42;101400.69;;;4.97;64.03
65131;BME280;51709;54.912;8.316;2023-03-16T12:24:10;101396.34;;;4.88;64.49
65131;BME280;51709;54.912;8.316;2023-03-16T12:29:48;101382.00;;;4.93;64.86
65131;BME280;51709;54.912;8.316;2023-03-16T12:35:25;101420.81;;;4.80;65.53
65131;BME280;51709;54.912;8.316;2023-03-16T12:52:03;101352.56;;;4.41;67.65
65131;BME280;51709;54.912;8.316;2023-03-16T12:57:25;101345.03;;;4.51;67.42
65131;BME280;51709;54.912;8.316;2023-03-16T13:02:53;101342.63;;;4.61;67.40
65131;BME280;51709;54.912;8.316;2023-03-16T13:08:17;101348.66;;;4.71;67.26
65131;BME280;51709;54.912;8.316;2023-03-16T13:14:08;101336.00;;;4.74;67.66
65131;BME280;51709;54.912;8.316;2023-03-16T13:19:32;101327.53;;;4.75;67.67
65131;BME280;51709;54.912;8.316;2023-03-16T13:25:23;101340.09;;;4.61;68.49
65131;BME280;51709;54.912;8.316;2023-03-16T13:30:55;101324.03;;;4.66;68.62
65131;BME280;51709;54.912;8.316;2023-03-16T13:36:16;101302.00;;;4.66;69.07
65131;BME280;51709;54.912;8.316;2023-03-16T13:41:37;101307.00;;;4.57;69.38
65131;BME280;51709;54.912;8.316;2023-03-16T13:47:04;101296.72;;;4.47;69.85
65131;BME280;51709;54.912;8.316;2023-03-16T13:52:33;101289.91;;;4.43;70.15
65131;BME280;51709;54.912;8.316;2023-03-16T13:57:54;101313.41;;;4.25;70.75
65131;BME280;51709;54.912;8.316;2023-03-16T14:03:17;101284.25;;;3.98;71.58
65131;BME280;51709;54.912;8.316;2023-03-16T14:08:39;101272.03;;;3.71;72.56
65131;BME280;51709;54.912;8.316;2023-03-16T14:14:00;101271.16;;;3.67;73.00
65131;BME280;51709;54.912;8.316;2023-03-16T14:19:39;101260.19;;;3.72;72.79
65131;BME280;51709;54.912;8.316;2023-03-16T14:25:04;101272.22;;;3.83;72.62
65131;BME280;51709;54.912;8.316;2023-03-16T14:30:27;101247.75;;;3.92;73.02
65131;BME280;51709;54.912;8.316;2023-03-16T14:35:54;101244.56;;;4.05;72.76
65131;BME280;51709;54.912;8.316;2023-03-16T14:41:24;101240.50;;;4.20;72.64
65131;BME280;51709;54.912;8.316;2023-03-16T14:46:46;101249.94;;;4.31;72.74
65131;BME280;51709;54.912;8.316;2023-03-16T14:52:15;101222.06;;;4.39;72.73
65131;BME280;51709;54.912;8.316;2023-03-16T14:57:41;101224.69;;;4.47;72.89
65131;BME280;51709;54.912;8.316;2023-03-16T15:03:05;101252.69;;;4.50;73.01
65131;BME280;51709;54.912;8.316;2023-03-16T15:08:30;101226.47;;;4.53;73.10
65131;BME280;51709;54.912;8.316;2023-03-16T15:13:52;101176.53;;;4.59;73.12
65131;BME280;51709;54.912;8.316;2023-03-16T15:19:23;101179.09;;;4.62;73.05
65131;BME280;51709;54.912;8.316;2023-03-16T15:24:44;101176.53;;;4.58;73.29
65131;BME280;51709;54.912;8.316;2023-03-16T15:30:14;101176.56;;;4.62;73.15
65131;BME280;51709;54.912;8.316;2023-03-16T15:35:35;101143.63;;;4.76;72.97
65131;BME280;51709;54.912;8.316;2023-03-16T15:40:57;101154.72;;;4.89;72.83
65131;BME280;51709;54.912;8.316;2023-03-16T15:46:17;101139.50;;;4.94;72.82
65131;BME280;51709;54.912;8.316;2023-03-16T15:51:38;101124.31;;;5.06;72.49
65131;BME280;51709;54.912;8.316;2023-03-16T15:57:00;101152.38;;;5.17;72.24
65131;BME280;51709;54.912;8.316;2023-03-16T16:02:30;101126.09;;;5.20;72.31
65131;BME280;51709;54.912;8.316;2023-03-16T16:07:53;101115.16;;;5.32;72.14
65131;BME280;51709;54.912;8.316;2023-03-16T16:13:32;101114.31;;;5.36;72.02
65131;BME280;51709;54.912;8.316;2023-03-16T16:19:04;101130.50;;;5.49;71.66
65131;BME280;51709;54.912;8.316;2023-03-16T16:24:25;101118.66;;;5.51;71.61
65131;BME280;51709;54.912;8.316;2023-03-16T16:29:45;101133.91;;;5.52;71.37
65131;BME280;51709;54.912;8.316;2023-03-16T16:35:14;101115.25;;;5.53;71.29
65131;BME280;51709;54.912;8.316;2023-03-16T16:40:37;101083.03;;;5.57;71.12
65131;BME280;51709;54.912;8.316;2023-03-16T16:46:00;101106.81;;;5.62;70.95
65131;BME280;51709;54.912;8.316;2023-03-16T16:51:23;101100.03;;;5.67;70.54
65131;BME280;51709;54.912;8.316;2023-03-16T16:56:44;101111.94;;;5.71;70.32
65131;BME280;51709;54.912;8.316;2023-03-16T17:02:21;101115.34;;;5.78;69.95
65131;BME280;51709;54.912;8.316;2023-03-16T17:07:41;101124.72;;;5.84;69.73
65131;BME280;51709;54.912;8.316;2023-03-16T17:13:03;101124.72;;;5.84;69.75
65131;BME280;51709;54.912;8.316;2023-03-16T17:18:24;101135.75;;;5.89;68.77
65131;BME280;51709;54.912;8.316;2023-03-16T17:23:46;101126.44;;;5.93;68.43
65131;BME280;51709;54.912;8.316;2023-03-16T17:29:14;101091.63;;;5.87;68.35
65131;BME280;51709;54.912;8.316;2023-03-16T17:34:36;101101.00;;;6.02;67.60
65131;BME280;51709;54.912;8.316;2023-03-16T17:39:57;101122.25;;;5.99;67.42
65131;BME280;51709;54.912;8.316;2023-03-16T17:45:25;101127.28;;;5.93;67.34
65131;BME280;51709;54.912;8.316;2023-03-16T17:50:48;101105.16;;;5.84;67.34
65131;BME280;51709;54.912;8.316;2023-03-16T17:56:21;101100.94;;;5.90;67.24
65131;BME280;51709;54.912;8.316;2023-03-16T18:01:42;101095.06;;;6.03;66.59
65131;BME280;51709;54.912;8.316;2023-03-16T18:07:04;101093.34;;;6.04;66.19
65131;BME280;51709;54.912;8.316;2023-03-16T18:12:24;101089.97;;;6.09;65.63
65131;BME280;51709;54.912;8.316;2023-03-16T18:17:46;101086.56;;;6.12;65.01
65131;BME280;51709;54.912;8.316;2023-03-16T18:23:15;101084.88;;;6.09;64.79
65131;BME280;51709;54.912;8.316;2023-03-16T18:28:37;101093.38;;;6.13;64.61
65131;BME280;51709;54.912;8.316;2023-03-16T18:33:58;101088.28;;;6.16;63.98
65131;BME280;51709;54.912;8.316;2023-03-16T18:39:20;101078.94;;;6.13;63.64
65131;BME280;51709;54.912;8.316;2023-03-16T18:44:41;101078.09;;;6.14;63.08
65131;BME280;51709;54.912;8.316;2023-03-16T18:50:02;101093.41;;;6.19;62.90
65131;BME280;51709;54.912;8.316;2023-03-16T18:55:24;101087.47;;;6.23;62.56
65131;BME280;51709;54.912;8.316;2023-03-16T19:00:49;101107.00;;;6.21;62.42
65131;BME280;51709;54.912;8.316;2023-03-16T19:06:18;101096.81;;;6.21;62.09
65131;BME280;51709;54.912;8.316;2023-03-16T19:11:41;101094.25;;;6.27;61.90
65131;BME280;51709;54.912;8.316;2023-03-16T19:17:03;101068.78;;;6.26;61.58
65131;BME280;51709;54.912;8.316;2023-03-16T19:22:24;101084.06;;;6.26;61.46
65131;BME280;51709;54.912;8.316;2023-03-16T19:27:44;101082.34;;;6.25;61.20
65131;BME280;51709;54.912;8.316;2023-03-16T19:33:35;101065.34;;;6.24;61.14
65131;BME280;51709;54.912;8.316;2023-03-16T19:38:58;101067.06;;;6.26;60.91
65131;BME280;51709;54.912;8.316;2023-03-16T19:44:20;101051.75;;;6.26;60.61
65131;BME280;51709;54.912;8.316;2023-03-16T19:49:42;101044.13;;;6.28;60.48
65131;BME280;51709;54.912;8.316;2023-03-16T19:55:03;101050.06;;;6.53;59.45
65131;BME280;51709;54.912;8.316;2023-03-16T20:00:24;101033.88;;;6.65;59.07
65131;BME280;51709;54.912;8.316;2023-03-16T20:05:45;101041.53;;;6.73;58.71
65131;BME280;51709;54.912;8.316;2023-03-16T20:11:13;101033.88;;;6.74;58.33
65131;BME280;51709;54.912;8.316;2023-03-16T20:16:34;101039.81;;;6.76;57.91
65131;BME280;51709;54.912;8.316;2023-03-16T20:21:55;101044.09;;;6.74;57.99
65131;BME280;51709;54.912;8.316;2023-03-16T20:27:18;101027.94;;;6.72;57.84
65131;BME280;51709;54.912;8.316;2023-03-16T20:32:38;101037.28;;;6.67;57.60
65131;BME280;51709;54.912;8.316;2023-03-16T20:38:02;101027.94;;;6.66;57.81
65131;BME280;51709;54.912;8.316;2023-03-16T20:43:28;101010.13;;;6.58;57.81
65131;BME280;51709;54.912;8.316;2023-03-16T20:48:49;100998.22;;;6.57;57.93
65131;BME280;51709;54.912;8.316;2023-03-16T20:54:10;100990.59;;;6.50;58.48
65131;BME280;51709;54.912;8.316;2023-03-16T20:59:31;100983.78;;;6.42;58.80
65131;BME280;51709;54.912;8.316;2023-03-16T21:04:54;100954.91;;;6.42;58.94
65131;BME280;51709;54.912;8.316;2023-03-16T21:10:17;100965.97;;;6.39;58.88
65131;BME280;51709;54.912;8.316;2023-03-16T21:15:42;100958.28;;;6.38;58.80
65131;BME280;51709;54.912;8.316;2023-03-16T21:21:03;100952.34;;;6.34;58.78
65131;BME280;51709;54.912;8.316;2023-03-16T21:26:25;100963.38;;;6.38;58.55
65131;BME280;51709;54.912;8.316;2023-03-16T21:31:57;100965.94;;;6.33;58.63
65131;BME280;51709;54.912;8.316;2023-03-16T21:37:20;100962.53;;;6.39;58.45
65131;BME280;51709;54.912;8.316;2023-03-16T21:42:42;100953.19;;;6.38;58.48
65131;BME280;51709;54.912;8.316;2023-03-16T21:48:04;100960.00;;;6.19;59.03
65131;BME280;51709;54.912;8.316;2023-03-16T21:53:27;100952.38;;;6.05;59.33
65131;BME280;51709;54.912;8.316;2023-03-16T21:58:49;100936.22;;;5.96;59.63
65131;BME280;51709;54.912;8.316;2023-03-16T22:04:13;100940.47;;;5.94;59.39
65131;BME280;51709;54.912;8.316;2023-03-16T22:09:36;100922.66;;;5.94;59.24
65131;BME280;51709;54.912;8.316;2023-03-16T22:14:56;100924.34;;;5.92;59.18
65131;BME280;51709;54.912;8.316;2023-03-16T22:34:43;100914.16;;;5.92;59.13
65131;BME280;51709;54.912;8.316;2023-03-16T22:40:08;100920.94;;;5.93;59.16
65131;BME280;51709;54.912;8.316;2023-03-16T22:45:34;100922.66;;;5.94;59.13
65131;BME280;51709;54.912;8.316;2023-03-16T22:50:57;100910.75;;;5.93;59.17
65131;BME280;51709;54.912;8.316;2023-03-16T22:56:20;100909.91;;;5.90;59.26
65131;BME280;51709;54.912;8.316;2023-03-16T23:01:43;100904.81;;;5.90;59.12
65131;BME280;51709;54.912;8.316;2023-03-16T23:07:10;100909.91;;;5.90;59.37
65131;BME280;51709;54.912;8.316;2023-03-16T23:12:32;100893.78;;;5.91;59.15
65131;BME280;51709;54.912;8.316;2023-03-16T23:17:53;100921.78;;;5.84;59.26
65131;BME280;51709;54.912;8.316;2023-03-16T23:23:15;100879.34;;;5.86;59.34
65131;BME280;51709;54.912;8.316;2023-03-16T23:28:35;100894.63;;;5.85;59.38
65131;BME280;51709;54.912;8.316;2023-03-16T23:33:56;100886.97;;;5.83;59.40
65131;BME280;51709;54.912;8.316;2023-03-16T23:39:17;100890.38;;;5.81;59.50
65131;BME280;51709;54.912;8.316;2023-03-16T23:44:38;100895.47;;;5.81;59.60
65131;BME280;51709;54.912;8.316;2023-03-16T23:49:59;100886.16;;;5.81;59.58
65131;BME280;51709;54.912;8.316;2023-03-16T23:55:20;100894.63;;;5.80;59.67
